Time;durP1;ratioP1;P1;durP2;ratioP2;P2;SDS_P1;SDS_P2;PMS_P1;PMS_P2;Temp;Humidity;BMP_temperature;BMP_pressure;BME280_temperature;BME280_humidity;BME280_pressure;Samples;Min_cycle;Max_cycle;Signal;HPM_P1;HPM_P2
2021/09/22 00:02:07;;;;;;;16.83;14.87;;;11.00;99.90;;;;;;4408543;32;20610;-64
2021/09/22 00:04:34;;;;;;;18.40;16.47;;;11.00;99.90;;;;;;4409054;32;20155;-64
2021/09/22 00:07:01;;;;;;;20.20;17.00;;;10.90;99.90;;;;;;4408000;32;20152;-63
2021/09/22 00:09:28;;;;;;;22.13;17.97;;;10.90;99.90;;;;;;4402153;32;20170;-64
2021/09/22 00:11:57;;;;;;;19.50;17.60;;;10.90;99.90;;;;;;4407522;32;20223;-65
2021/09/22 00:14:23;;;;;;;21.37;18.53;;;10.90;99.90;;;;;;4408536;32;20210;-64
2021/09/22 00:16:52;;;;;;;21.27;19.13;;;10.90;99.90;;;;;;4405582;32;20639;-65
2021/09/22 00:19:19;;;;;;;20.70;18.20;;;10.90;99.90;;;;;;4408126;32;20219;-63
2021/09/22 00:21:45;;;;;;;19.47;17.47;;;10.80;99.90;;;;;;4407494;32;20172;-66
2021/09/22 00:24:12;;;;;;;18.23;16.40;;;10.80;99.90;;;;;;4403032;32;20556;-64
2021/09/22 00:26:39;;;;;;;19.47;16.37;;;10.90;99.90;;;;;;4402277;32;20171;-67
2021/09/22 00:29:08;;;;;;;18.53;16.47;;;10.80;99.90;;;;;;4406677;32;20185;-66
2021/09/22 00:31:36;;;;;;;23.07;17.60;;;10.80;99.90;;;;;;4396601;32;20178;-64
2021/09/22 00:34:05;;;;;;;23.73;20.33;;;10.70;99.90;;;;;;4407511;32;20140;-66
2021/09/22 00:36:32;;;;;;;23.10;20.57;;;10.70;99.90;;;;;;4406702;32;20254;-64
2021/09/22 00:38:59;;;;;;;24.43;20.93;;;10.70;99.90;;;;;;4407220;32;20652;-64
2021/09/22 00:41:26;;;;;;;23.70;18.63;;;10.70;99.90;;;;;;4407563;32;20578;-63
2021/09/22 00:43:53;;;;;;;22.77;20.40;;;10.70;99.90;;;;;;4407669;32;20253;-63
2021/09/22 00:46:20;;;;;;;26.57;21.27;;;10.60;99.90;;;;;;4406255;32;20155;-64
2021/09/22 00:48:46;;;;;;;24.77;21.03;;;10.70;99.90;;;;;;4407564;32;20160;-66
2021/09/22 00:51:15;;;;;;;29.70;23.20;;;10.60;99.90;;;;;;4355729;32;1666435;-64
2021/09/22 00:53:41;;;;;;;25.63;21.33;;;10.70;99.90;;;;;;4404506;32;20187;-63
2021/09/22 00:56:08;;;;;;;24.33;20.67;;;10.60;99.90;;;;;;4408324;32;20231;-65
2021/09/22 00:58:36;;;;;;;23.80;20.30;;;10.60;99.90;;;;;;4405189;32;20194;-64
2021/09/22 01:01:04;;;;;;;24.00;21.00;;;10.60;99.90;;;;;;4405774;32;21821;-64
2021/09/22 01:03:34;;;;;;;25.10;20.97;;;10.60;99.90;;;;;;4403065;32;20163;-64
2021/09/22 01:06:01;;;;;;;21.63;19.30;;;10.60;99.90;;;;;;4404854;32;20182;-63
2021/09/22 01:08:30;;;;;;;19.60;17.23;;;10.60;99.90;;;;;;4404187;32;20185;-63
2021/09/22 01:11:00;;;;;;;19.00;17.13;;;10.50;99.90;;;;;;4406030;32;20159;-63
2021/09/22 01:13:27;;;;;;;18.93;16.90;;;10.50;99.90;;;;;;4402423;32;20226;-64
2021/09/22 01:15:54;;;;;;;19.83;17.67;;;10.50;99.90;;;;;;4406809;32;20191;-63
2021/09/22 01:18:23;;;;;;;18.97;16.97;;;10.50;99.90;;;;;;4407025;32;20191;-65
2021/09/22 01:20:55;;;;;;;19.70;17.53;;;10.40;99.90;;;;;;4403675;32;20147;-64
2021/09/22 01:23:25;;;;;;;23.43;18.60;;;10.40;99.90;;;;;;4402949;32;20179;-63
2021/09/22 01:25:53;;;;;;;20.70;17.30;;;10.40;99.90;;;;;;4406839;32;20223;-65
2021/09/22 01:28:22;;;;;;;21.60;18.00;;;10.40;99.90;;;;;;4406019;32;20459;-63
2021/09/22 01:30:49;;;;;;;22.27;19.00;;;10.40;99.90;;;;;;4405985;32;20892;-65
2021/09/22 01:33:18;;;;;;;21.80;18.43;;;10.30;99.90;;;;;;4399686;32;20153;-64
2021/09/22 01:35:47;;;;;;;23.60;19.53;;;10.30;99.90;;;;;;4405356;32;20170;-66
2021/09/22 01:38:17;;;;;;;22.30;19.90;;;10.30;99.90;;;;;;4401796;32;20152;-64
2021/09/22 01:40:55;;;;;;;23.13;20.53;;;10.20;99.90;;;;;;4400899;32;20187;-64
2021/09/22 01:43:26;;;;;;;23.53;21.13;;;10.20;99.90;;;;;;4403225;32;20182;-64
2021/09/22 01:45:53;;;;;;;24.13;19.63;;;10.20;99.90;;;;;;4407900;32;20810;-66
2021/09/22 01:48:23;;;;;;;22.47;20.17;;;10.10;99.90;;;;;;4385967;32;20159;-64
2021/09/22 01:50:50;;;;;;;19.67;17.57;;;10.10;99.90;;;;;;4399210;32;20624;-64
2021/09/22 01:53:17;;;;;;;18.70;16.73;;;10.10;99.90;;;;;;4405446;32;20223;-62
2021/09/22 01:55:44;;;;;;;20.67;18.23;;;10.10;99.90;;;;;;4405924;32;20576;-65
2021/09/22 01:58:13;;;;;;;21.17;18.87;;;10.10;99.90;;;;;;4405431;32;20151;-64
2021/09/22 02:00:40;;;;;;;21.20;19.00;;;10.00;99.90;;;;;;4407499;32;20156;-64
2021/09/22 02:03:07;;;;;;;20.70;18.53;;;10.00;99.90;;;;;;4407362;32;20163;-65
2021/09/22 02:05:34;;;;;;;22.30;19.97;;;10.10;99.90;;;;;;4405513;32;20167;-64
2021/09/22 02:08:01;;;;;;;20.13;18.13;;;10.00;99.90;;;;;;4405693;32;20230;-63
2021/09/22 02:10:31;;;;;;;18.47;15.87;;;10.00;99.90;;;;;;4403990;32;20234;-65
2021/09/22 02:12:58;;;;;;;18.93;17.03;;;10.00;99.90;;;;;;4403053;32;20139;-63
2021/09/22 02:15:27;;;;;;;18.13;16.23;;;9.90;99.90;;;;;;4405729;32;20163;-65
2021/09/22 02:17:54;;;;;;;18.30;16.50;;;9.90;99.90;;;;;;4401636;32;20487;-63
2021/09/22 02:20:21;;;;;;;20.23;17.60;;;10.00;99.90;;;;;;4405673;32;20480;-63
2021/09/22 02:22:52;;;;;;;22.53;19.77;;;9.90;99.90;;;;;;4405787;32;20187;-63
2021/09/22 02:25:22;;;;;;;22.17;18.43;;;9.90;99.90;;;;;;4405564;32;20139;-66
2021/09/22 02:27:50;;;;;;;23.83;19.53;;;9.80;99.90;;;;;;4405486;32;20148;-65
2021/09/22 02:30:19;;;;;;;22.93;19.90;;;9.80;99.90;;;;;;4400517;32;20155;-65
2021/09/22 02:32:47;;;;;;;26.07;21.03;;;9.70;99.90;;;;;;4405781;32;20230;-67
2021/09/22 02:35:15;;;;;;;26.47;20.97;;;9.70;99.90;;;;;;4400978;32;20301;-62
2021/09/22 02:37:42;;;;;;;24.57;20.77;;;9.80;99.90;;;;;;4405829;32;20152;-62
2021/09/22 02:40:13;;;;;;;24.57;21.60;;;9.70;99.90;;;;;;4401778;32;20151;-62
2021/09/22 02:42:41;;;;;;;22.80;20.00;;;9.70;99.90;;;;;;4399755;32;20162;-63
2021/09/22 02:45:09;;;;;;;24.67;19.83;;;9.70;99.90;;;;;;4400934;32;20176;-63
2021/09/22 02:47:36;;;;;;;23.60;19.90;;;9.70;99.90;;;;;;4405576;32;20456;-63
2021/09/22 02:50:06;;;;;;;22.23;19.83;;;9.70;99.90;;;;;;4405432;32;20166;-63
2021/09/22 02:52:33;;;;;;;26.37;21.57;;;9.70;99.90;;;;;;4405850;32;20547;-63
2021/09/22 02:55:04;;;;;;;28.67;24.90;;;9.70;99.90;;;;;;4401603;32;20144;-65
2021/09/22 02:57:31;;;;;;;28.10;22.13;;;9.60;99.90;;;;;;4405271;32;20221;-63
2021/09/22 03:00:02;;;;;;;24.10;20.20;;;9.60;99.90;;;;;;4407163;32;20222;-64
2021/09/22 03:02:29;;;;;;;25.57;21.93;;;9.60;99.90;;;;;;4406780;32;20490;-66
2021/09/22 03:04:55;;;;;;;25.20;20.97;;;9.60;99.90;;;;;;4406443;32;20145;-64
2021/09/22 03:07:24;;;;;;;23.90;21.23;;;9.60;99.90;;;;;;4407165;32;20440;-63
2021/09/22 03:09:50;;;;;;;25.00;22.30;;;9.60;99.90;;;;;;4405271;32;20167;-62
2021/09/22 03:12:17;;;;;;;25.07;21.97;;;9.60;99.90;;;;;;4406136;32;20166;-64
2021/09/22 03:14:44;;;;;;;24.87;21.30;;;9.50;99.90;;;;;;4407164;32;20238;-64
2021/09/22 03:17:11;;;;;;;27.87;22.97;;;9.50;99.90;;;;;;4402884;32;20166;-63
2021/09/22 03:19:38;;;;;;;30.10;24.30;;;9.50;99.90;;;;;;4401033;32;20172;-64
2021/09/22 03:22:05;;;;;;;31.13;24.00;;;9.40;99.90;;;;;;4406158;32;20531;-63
2021/09/22 03:24:33;;;;;;;28.30;23.10;;;9.50;99.90;;;;;;4408522;32;20577;-64
2021/09/22 03:27:00;;;;;;;28.53;23.57;;;9.50;99.90;;;;;;4408378;32;20144;-63
2021/09/22 03:29:27;;;;;;;28.10;24.30;;;9.50;99.90;;;;;;4408061;32;20146;-63
2021/09/22 03:31:53;;;;;;;29.60;23.57;;;9.50;99.90;;;;;;4407980;32;20200;-65
2021/09/22 03:34:31;;;;;;;32.23;26.13;;;9.60;99.90;;;;;;4405207;32;20152;-62
2021/09/22 03:36:58;;;;;;;30.67;24.33;;;9.50;99.90;;;;;;4408046;32;20148;-63
2021/09/22 03:39:28;;;;;;;31.70;26.67;;;9.50;99.90;;;;;;4405510;32;20159;-63
2021/09/22 03:41:57;;;;;;;29.77;24.03;;;9.50;99.90;;;;;;4408886;32;20210;-63
2021/09/22 03:44:25;;;;;;;29.93;25.50;;;9.40;99.90;;;;;;4407544;32;20283;-62
2021/09/22 03:46:52;;;;;;;32.57;25.60;;;9.40;99.90;;;;;;4407989;32;20145;-63
2021/09/22 03:49:19;;;;;;;34.70;27.20;;;9.50;99.90;;;;;;4404378;32;20208;-63
2021/09/22 03:51:45;;;;;;;31.47;25.23;;;9.50;99.90;;;;;;4405977;32;20557;-63
2021/09/22 03:54:12;;;;;;;32.90;29.13;;;9.50;99.90;;;;;;4402269;32;20215;-62
2021/09/22 03:56:39;;;;;;;35.13;26.40;;;9.50;99.90;;;;;;4409590;32;20131;-63
2021/09/22 03:59:07;;;;;;;35.67;25.83;;;9.50;99.90;;;;;;4402200;32;20171;-62
2021/09/22 04:01:34;;;;;;;34.23;27.33;;;9.50;99.90;;;;;;4406382;32;20212;-62
2021/09/22 04:04:03;;;;;;;35.23;28.10;;;9.50;99.90;;;;;;4407850;32;20151;-65
2021/09/22 04:06:30;;;;;;;33.53;25.10;;;9.50;99.90;;;;;;4401413;32;20153;-63
2021/09/22 04:08:57;;;;;;;32.30;26.50;;;9.50;99.90;;;;;;4401115;32;20148;-62
2021/09/22 04:11:24;;;;;;;32.20;26.83;;;9.50;99.90;;;;;;4407126;32;20204;-62
2021/09/22 04:13:52;;;;;;;31.03;25.30;;;9.50;99.90;;;;;;4407663;32;20227;-62
2021/09/22 04:16:20;;;;;;;34.40;26.50;;;9.50;99.90;;;;;;4407565;32;20166;-62
2021/09/22 04:18:47;;;;;;;37.03;28.53;;;9.40;99.90;;;;;;4407825;32;20143;-63
2021/09/22 04:21:14;;;;;;;35.43;28.63;;;9.40;99.90;;;;;;4404233;32;20151;-62
2021/09/22 04:23:41;;;;;;;37.00;28.50;;;9.40;99.90;;;;;;4407643;32;20147;-62
2021/09/22 04:26:09;;;;;;;30.03;25.27;;;9.40;99.90;;;;;;4408545;32;20148;-62
2021/09/22 04:28:36;;;;;;;36.73;29.23;;;9.30;99.90;;;;;;4403653;32;20207;-65
2021/09/22 04:31:03;;;;;;;38.23;31.77;;;9.30;99.90;;;;;;4405665;32;20231;-65
2021/09/22 04:33:31;;;;;;;35.73;29.93;;;9.40;99.90;;;;;;4402991;32;20168;-63
2021/09/22 04:35:58;;;;;;;37.73;29.13;;;9.40;99.90;;;;;;4405347;32;20202;-65
2021/09/22 04:38:25;;;;;;;37.93;28.80;;;9.40;99.90;;;;;;4405951;32;20217;-63
2021/09/22 04:40:53;;;;;;;32.23;27.90;;;9.40;99.90;;;;;;4407008;32;20822;-63
2021/09/22 04:43:19;;;;;;;36.90;30.83;;;9.40;99.90;;;;;;4406025;32;20171;-63
2021/09/22 04:45:48;;;;;;;33.63;27.30;;;9.30;99.90;;;;;;4406088;32;20161;-62
2021/09/22 04:48:16;;;;;;;35.27;29.43;;;9.40;99.90;;;;;;4407047;32;20191;-62
2021/09/22 04:50:45;;;;;;;41.60;31.70;;;9.40;99.90;;;;;;4405469;32;20216;-63
2021/09/22 04:53:12;;;;;;;35.63;28.43;;;9.40;99.90;;;;;;4398378;32;20149;-62
2021/09/22 04:55:39;;;;;;;38.37;29.27;;;9.30;99.90;;;;;;4408205;32;20244;-62
2021/09/22 04:58:05;;;;;;;37.90;28.70;;;9.40;99.90;;;;;;4395271;32;20217;-64
2021/09/22 05:00:32;;;;;;;35.97;29.70;;;9.40;99.90;;;;;;4408400;32;20163;-66
2021/09/22 05:03:03;;;;;;;32.60;28.40;;;9.30;99.90;;;;;;4407652;32;20226;-62
2021/09/22 05:05:31;;;;;;;33.40;27.43;;;9.30;99.90;;;;;;4398604;32;20244;-62
2021/09/22 05:08:04;;;;;;;30.23;25.07;;;9.30;99.90;;;;;;4404022;32;20233;-62
2021/09/22 05:10:31;;;;;;;34.83;27.33;;;9.30;99.90;;;;;;4403871;32;20487;-62
2021/09/22 05:12:58;;;;;;;39.63;27.73;;;9.30;99.90;;;;;;4402488;32;20656;-63
2021/09/22 05:15:30;;;;;;;38.37;31.20;;;9.40;99.90;;;;;;4400362;32;20581;-63
2021/09/22 05:17:58;;;;;;;38.00;30.10;;;9.30;99.90;;;;;;4394826;32;20323;-64
2021/09/22 05:20:33;;;;;;;39.43;29.87;;;9.40;99.90;;;;;;4388657;32;20685;-62
2021/09/22 05:23:03;;;;;;;41.73;30.93;;;9.40;99.90;;;;;;4397094;32;20230;-64
2021/09/22 05:25:30;;;;;;;43.13;30.03;;;9.40;99.90;;;;;;4389185;32;20231;-62
2021/09/22 05:28:04;;;;;;;42.30;31.33;;;9.40;99.90;;;;;;4388429;32;20332;-63
2021/09/22 05:30:31;;;;;;;42.40;29.53;;;9.40;99.90;;;;;;4388756;32;20247;-62
2021/09/22 05:32:59;;;;;;;42.97;31.37;;;9.30;99.90;;;;;;4395900;32;20198;-61
2021/09/22 05:35:26;;;;;;;38.60;30.73;;;9.40;99.90;;;;;;4396777;32;21143;-63
2021/09/22 05:37:53;;;;;;;38.67;30.53;;;9.40;99.90;;;;;;4398567;32;20494;-64
2021/09/22 05:40:24;;;;;;;38.83;30.90;;;9.40;99.90;;;;;;4396348;32;20148;-63
2021/09/22 05:42:52;;;;;;;36.47;28.03;;;9.40;99.90;;;;;;4401217;32;20671;-63
2021/09/22 05:45:19;;;;;;;34.90;29.70;;;9.40;99.90;;;;;;4403700;32;20184;-61
2021/09/22 05:47:50;;;;;;;36.40;30.20;;;9.40;99.90;;;;;;4399427;32;20487;-61
2021/09/22 05:50:17;;;;;;;39.13;29.80;;;9.50;99.90;;;;;;4401274;32;20161;-63
2021/09/22 05:52:47;;;;;;;37.57;29.27;;;9.50;99.90;;;;;;4397239;32;20148;-62
2021/09/22 05:55:14;;;;;;;40.40;31.40;;;9.50;99.90;;;;;;4401609;32;20679;-61
2021/09/22 05:57:44;;;;;;;37.70;29.93;;;9.50;99.90;;;;;;4398078;32;20471;-62
2021/09/22 06:00:12;;;;;;;44.03;30.60;;;9.50;99.90;;;;;;4396509;32;20234;-61
2021/09/22 06:02:39;;;;;;;44.60;32.97;;;9.60;99.90;;;;;;4402637;32;20250;-61
2021/09/22 06:05:06;;;;;;;42.23;30.17;;;9.60;99.90;;;;;;4402917;32;20188;-63
2021/09/22 06:07:34;;;;;;;43.63;32.60;;;9.60;99.90;;;;;;4398417;32;20168;-63
2021/09/22 06:10:01;;;;;;;41.77;31.57;;;9.70;99.90;;;;;;4386886;32;20153;-63
2021/09/22 06:12:28;;;;;;;42.77;32.63;;;9.70;99.90;;;;;;4395018;32;20239;-62
2021/09/22 06:14:56;;;;;;;42.57;31.37;;;9.70;99.90;;;;;;4393551;32;20223;-63
2021/09/22 06:17:23;;;;;;;42.23;31.93;;;9.80;99.90;;;;;;4397944;32;20155;-62
2021/09/22 06:19:50;;;;;;;48.23;32.87;;;9.90;99.90;;;;;;4402458;32;20186;-62
2021/09/22 06:22:22;;;;;;;42.63;32.60;;;10.10;99.90;;;;;;4404224;32;20218;-63
2021/09/22 06:24:49;;;;;;;46.30;33.03;;;10.10;99.90;;;;;;4401487;32;20147;-62
2021/09/22 06:27:16;;;;;;;40.57;30.60;;;10.30;99.90;;;;;;4400931;32;20542;-62
2021/09/22 06:36:32;;;;;;;43.80;31.00;;;10.60;99.90;;;;;;4406236;32;20151;-64
2021/09/22 06:39:03;;;;;;;41.57;31.70;;;10.70;99.90;;;;;;4407595;32;20158;-62
2021/09/22 06:41:35;;;;;;;42.93;30.83;;;10.70;99.90;;;;;;4407210;32;20292;-64
2021/09/22 06:44:11;;;;;;;48.20;33.60;;;10.90;99.90;;;;;;4405789;32;20181;-63
2021/09/22 06:46:48;;;;;;;43.63;32.57;;;11.00;99.90;;;;;;4405879;32;20146;-63
2021/09/22 06:49:15;;;;;;;46.23;32.93;;;11.20;99.90;;;;;;4400568;32;20157;-63
2021/09/22 06:51:50;;;;;;;44.83;35.03;;;11.30;99.90;;;;;;4405584;32;20171;-62
2021/09/22 06:54:17;;;;;;;47.40;34.43;;;11.60;99.90;;;;;;4405830;32;20154;-62
2021/09/22 06:56:44;;;;;;;44.67;33.63;;;11.70;99.90;;;;;;4405407;32;20179;-61
2021/09/22 06:59:12;;;;;;;46.63;34.20;;;11.90;99.90;;;;;;4407011;32;20143;-62
2021/09/22 07:01:40;;;;;;;46.30;36.90;;;12.00;99.90;;;;;;4405834;32;20481;-62
2021/09/22 07:04:07;;;;;;;47.23;35.23;;;12.00;99.90;;;;;;4405681;32;20216;-62
2021/09/22 07:06:34;;;;;;;45.87;36.60;;;11.90;99.90;;;;;;4405810;32;20140;-63
2021/09/22 07:09:03;;;;;;;50.13;39.33;;;12.00;99.90;;;;;;4405782;32;20202;-62
2021/09/22 07:11:36;;;;;;;45.90;34.20;;;12.10;99.90;;;;;;4405663;32;20185;-62
2021/09/22 07:14:06;;;;;;;48.07;34.63;;;12.30;99.90;;;;;;4405814;32;20496;-62
2021/09/22 07:16:33;;;;;;;46.03;35.20;;;12.40;99.90;;;;;;4405574;32;20159;-61
2021/09/22 07:19:01;;;;;;;46.53;36.23;;;12.50;99.90;;;;;;4405738;32;20151;-64
2021/09/22 07:21:50;;;;;;;45.53;33.40;;;12.50;99.90;;;;;;4405757;32;20163;-63
2021/09/22 07:24:18;;;;;;;46.77;35.00;;;12.60;99.90;;;;;;4405655;32;20175;-64
2021/09/22 07:26:48;;;;;;;45.23;34.70;;;12.70;99.90;;;;;;4405648;32;20182;-64
2021/09/22 07:29:15;;;;;;;44.10;35.23;;;12.90;99.90;;;;;;4406987;32;20140;-63
2021/09/22 07:31:42;;;;;;;50.27;37.57;;;13.10;99.90;;;;;;4405177;32;20159;-64
2021/09/22 07:34:09;;;;;;;48.77;38.23;;;13.40;99.90;;;;;;4406057;32;20449;-64
2021/09/22 07:36:36;;;;;;;45.83;37.07;;;13.60;99.90;;;;;;4406684;32;20498;-62
2021/09/22 07:39:03;;;;;;;39.60;33.43;;;14.10;99.90;;;;;;4405125;32;20222;-63
2021/09/22 07:41:34;;;;;;;39.77;33.33;;;14.40;99.90;;;;;;4405603;32;20160;-63
2021/09/22 07:44:01;;;;;;;42.57;34.20;;;14.70;99.90;;;;;;4405330;32;20137;-62
2021/09/22 07:46:29;;;;;;;40.63;32.20;;;14.80;99.90;;;;;;4405292;32;20141;-64
2021/09/22 07:48:56;;;;;;;44.97;33.33;;;15.00;99.90;;;;;;4406523;32;20193;-63
2021/09/22 07:51:23;;;;;;;39.93;30.57;;;15.10;99.90;;;;;;4398060;32;20160;-62
2021/09/22 07:54:02;;;;;;;40.60;32.50;;;15.20;99.90;;;;;;4397030;32;20186;-64
2021/09/22 07:56:29;;;;;;;37.40;30.53;;;15.30;99.90;;;;;;4396052;32;20153;-63
2021/09/22 07:59:00;;;;;;;41.17;31.20;;;15.60;99.90;;;;;;4397328;32;20199;-63
2021/09/22 08:01:28;;;;;;;39.97;31.37;;;15.70;99.90;;;;;;4390599;32;20153;-61
2021/09/22 08:03:57;;;;;;;38.33;31.13;;;15.90;99.90;;;;;;4390532;32;20175;-63
2021/09/22 08:06:32;;;;;;;36.10;29.83;;;16.10;99.90;;;;;;4405130;32;20153;-63
2021/09/22 08:08:59;;;;;;;38.77;31.43;;;16.30;99.90;;;;;;4405388;32;20210;-63
2021/09/22 08:11:30;;;;;;;39.87;31.13;;;16.50;99.90;;;;;;4408185;32;20583;-63
2021/09/22 08:13:58;;;;;;;45.77;29.93;;;16.50;99.90;;;;;;4407799;32;20172;-62
2021/09/22 08:16:25;;;;;;;42.30;31.60;;;16.50;99.90;;;;;;4407786;32;20481;-62
2021/09/22 08:18:52;;;;;;;33.40;27.17;;;16.60;99.90;;;;;;4407349;32;20208;-62
2021/09/22 08:21:19;;;;;;;34.73;27.83;;;16.60;99.90;;;;;;4407670;32;20139;-63
2021/09/22 08:23:46;;;;;;;33.50;28.67;;;16.70;99.90;;;;;;4407669;32;20168;-62
2021/09/22 08:26:13;;;;;;;36.57;28.73;;;17.00;99.90;;;;;;4407707;32;20144;-63
2021/09/22 08:28:40;;;;;;;36.03;29.17;;;17.20;99.90;;;;;;4407609;32;20168;-63
2021/09/22 08:31:09;;;;;;;35.07;28.10;;;17.50;99.90;;;;;;4407736;32;20175;-62
2021/09/22 08:33:54;;;;;;;37.97;30.43;;;17.80;99.90;;;;;;4407501;32;20464;-63
2021/09/22 08:36:26;;;;;;;34.13;28.93;;;17.80;99.90;;;;;;4407701;32;20152;-63
2021/09/22 08:38:59;;;;;;;35.23;28.43;;;17.90;99.90;;;;;;4407845;32;20131;-63
2021/09/22 08:41:32;;;;;;;36.17;30.20;;;17.90;99.90;;;;;;4407967;32;20567;-63
2021/09/22 08:44:03;;;;;;;31.70;27.80;;;18.00;99.90;;;;;;4407548;32;20155;-63
2021/09/22 08:46:35;;;;;;;35.37;27.20;;;18.00;99.90;;;;;;4407628;32;20475;-64
2021/09/22 08:49:03;;;;;;;32.03;28.27;;;18.10;99.90;;;;;;4407398;32;20166;-62
2021/09/22 08:51:30;;;;;;;33.80;28.33;;;18.10;99.90;;;;;;4408094;32;20498;-63
2021/09/22 08:53:59;;;;;;;33.03;27.10;;;18.00;99.90;;;;;;4408898;32;20159;-60
2021/09/22 08:56:28;;;;;;;31.90;26.40;;;17.80;99.90;;;;;;4407312;32;20170;-63
2021/09/22 08:58:56;;;;;;;36.00;27.43;;;17.80;99.90;;;;;;4407744;32;20467;-61
2021/09/22 09:01:25;;;;;;;33.07;29.30;;;17.80;99.90;;;;;;4406921;32;20147;-62
2021/09/22 09:03:54;;;;;;;32.17;26.53;;;17.90;99.90;;;;;;4408187;32;20136;-61
2021/09/22 09:06:24;;;;;;;31.20;27.87;;;18.00;99.90;;;;;;4406984;32;20133;-61
2021/09/22 09:08:52;;;;;;;32.57;26.57;;;18.10;99.90;;;;;;4408747;32;20228;-61
2021/09/22 09:11:27;;;;;;;32.57;27.90;;;18.30;99.90;;;;;;4407204;32;20158;-62
2021/09/22 09:13:56;;;;;;;32.63;27.00;;;18.50;99.90;;;;;;4407297;32;20162;-63
2021/09/22 09:16:25;;;;;;;32.27;28.00;;;18.60;99.90;;;;;;4403178;32;20144;-62
2021/09/22 09:18:59;;;;;;;29.37;24.47;;;18.60;99.90;;;;;;4399270;32;20163;-62
2021/09/22 09:21:29;;;;;;;29.00;25.73;;;18.70;99.90;;;;;;4399957;32;20699;-62
2021/09/22 09:23:59;;;;;;;28.03;24.47;;;18.80;99.90;;;;;;4404951;32;20680;-61
2021/09/22 09:26:33;;;;;;;28.43;25.30;;;19.00;99.90;;;;;;4404104;32;20515;-63
2021/09/22 09:29:00;;;;;;;30.33;24.67;;;19.20;99.90;;;;;;4399459;32;20144;-65
2021/09/22 09:31:32;;;;;;;29.73;26.57;;;19.30;99.90;;;;;;4397835;32;20178;-64
2021/09/22 09:34:03;;;;;;;28.87;25.73;;;19.10;99.90;;;;;;4400232;32;20183;-63
2021/09/22 09:36:33;;;;;;;28.50;23.43;;;19.00;99.90;;;;;;4398477;32;20163;-64
2021/09/22 09:39:07;;;;;;;27.97;25.07;;;19.00;99.90;;;;;;4399400;32;20208;-65
2021/09/22 09:41:40;;;;;;;29.13;25.97;;;18.90;99.90;;;;;;4397377;32;20174;-65
2021/09/22 09:44:08;;;;;;;28.70;25.63;;;18.80;99.90;;;;;;4399098;32;20152;-63
2021/09/22 09:46:37;;;;;;;29.83;26.50;;;18.80;99.90;;;;;;4395257;32;20568;-64
2021/09/22 09:49:09;;;;;;;31.03;27.90;;;18.80;99.90;;;;;;4398301;32;20249;-62
2021/09/22 09:51:42;;;;;;;31.53;26.23;;;18.90;99.90;;;;;;4397891;32;20155;-63
2021/09/22 09:54:21;;;;;;;30.53;25.97;;;18.80;99.90;;;;;;4390985;32;20133;-63
2021/09/22 09:56:51;;;;;;;30.80;27.60;;;18.90;99.90;;;;;;4391790;32;20592;-63
2021/09/22 09:59:21;;;;;;;28.13;24.23;;;19.00;99.90;;;;;;4392077;32;20176;-64
2021/09/22 10:01:50;;;;;;;29.60;26.63;;;19.10;99.90;;;;;;4390915;32;20183;-63
2021/09/22 10:04:23;;;;;;;31.53;28.23;;;19.30;99.90;;;;;;4391436;32;20540;-64
2021/09/22 10:06:52;;;;;;;30.00;26.83;;;19.40;99.90;;;;;;4390843;32;20162;-63
2021/09/22 10:09:19;;;;;;;27.43;24.47;;;19.40;99.90;;;;;;4390969;32;20175;-63
2021/09/22 10:11:47;;;;;;;29.97;26.93;;;19.40;99.90;;;;;;4391007;32;20155;-62
2021/09/22 10:14:16;;;;;;;30.00;26.47;;;19.50;99.90;;;;;;4390279;32;20148;-61
2021/09/22 10:16:44;;;;;;;27.97;25.27;;;19.50;99.90;;;;;;4391307;32;20137;-62
2021/09/22 10:19:15;;;;;;;27.60;24.70;;;19.50;99.90;;;;;;4391495;32;20158;-63
2021/09/22 10:21:44;;;;;;;27.43;24.50;;;19.50;99.90;;;;;;4390702;32;20174;-63
2021/09/22 10:24:12;;;;;;;28.93;25.93;;;19.40;99.90;;;;;;4390526;32;20191;-64
2021/09/22 10:26:40;;;;;;;29.40;26.60;;;19.40;99.90;;;;;;4394263;32;20529;-63
2021/09/22 10:29:21;;;;;;;28.70;25.77;;;19.50;99.90;;;;;;4399200;32;20152;-63
2021/09/22 10:31:49;;;;;;;31.33;28.13;;;19.60;99.90;;;;;;4397645;32;20219;-63
2021/09/22 10:34:31;;;;;;;29.40;26.17;;;19.70;99.90;;;;;;4406634;32;20202;-64
2021/09/22 10:37:28;;;;;;;29.10;26.10;;;19.80;99.90;;;;;;4406033;32;20183;-63
2021/09/22 10:40:01;;;;;;;28.27;25.73;;;19.80;99.90;;;;;;4405629;32;20147;-63
2021/09/22 10:42:34;;;;;;;31.23;28.33;;;19.90;99.90;;;;;;4405882;32;20546;-63
2021/09/22 10:45:19;;;;;;;30.53;27.27;;;19.90;99.90;;;;;;4405602;32;20147;-63
2021/09/22 10:47:46;;;;;;;26.33;23.73;;;19.90;99.90;;;;;;4405480;32;20246;-62
2021/09/22 10:50:35;;;;;;;27.47;25.00;;;19.90;99.90;;;;;;4397779;32;20140;-63
2021/09/22 10:53:41;;;;;;;30.97;28.07;;;19.90;99.90;;;;;;4395402;32;20184;-64
2021/09/22 10:56:11;;;;;;;25.87;23.27;;;20.00;99.90;;;;;;4397795;32;20232;-64
2021/09/22 10:58:47;;;;;;;29.53;26.83;;;20.00;99.90;;;;;;4404652;32;20213;-65
2021/09/22 11:02:02;;;;;;;28.87;26.53;;;20.10;99.90;;;;;;4400211;32;20158;-63
2021/09/22 11:05:09;;;;;;;25.97;23.40;;;20.30;99.90;;;;;;4405471;32;20190;-64
2021/09/22 11:07:55;;;;;;;56.92;53.30;;;20.40;99.90;;;;;;4401171;32;20031;-63
2021/09/22 11:10:54;;;;;;;32.57;29.90;;;20.40;99.90;;;;;;4399997;32;20190;-65
2021/09/22 11:13:43;;;;;;;27.43;25.30;;;20.40;99.90;;;;;;4358099;33;20221;-65
2021/09/22 11:16:15;;;;;;;28.57;26.17;;;20.50;99.90;;;;;;4357670;33;20153;-65
2021/09/22 11:18:47;;;;;;;27.73;25.23;;;20.50;99.90;;;;;;4351855;33;20157;-65
2021/09/22 11:21:18;;;;;;;28.90;26.33;;;20.50;99.90;;;;;;4351397;33;20164;-64
2021/09/22 11:23:45;;;;;;;26.63;24.43;;;20.60;99.90;;;;;;4351129;33;20255;-64
2021/09/22 11:26:13;;;;;;;26.97;24.70;;;20.70;99.90;;;;;;4344201;33;20183;-63
2021/09/22 11:28:52;;;;;;;27.23;25.03;;;20.70;99.90;;;;;;4347121;33;20680;-64
2021/09/22 11:31:22;;;;;;;30.87;28.23;;;20.70;99.90;;;;;;4345226;33;20604;-64
2021/09/22 11:34:15;;;;;;;28.13;25.60;;;20.80;99.90;;;;;;4344165;33;20254;-64
2021/09/22 11:36:42;;;;;;;29.43;27.07;;;20.70;99.90;;;;;;4347990;33;20156;-63
2021/09/22 11:39:24;;;;;;;28.57;26.23;;;20.70;99.90;;;;;;4358386;33;20214;-64
2021/09/22 11:41:56;;;;;;;28.13;25.90;;;20.80;99.90;;;;;;4357256;33;20153;-64
2021/09/22 11:44:34;;;;;;;30.67;27.97;;;20.90;99.90;;;;;;4360032;32;20635;-64
2021/09/22 11:47:14;;;;;;;27.50;25.37;;;20.90;99.90;;;;;;4360257;33;20223;-64
2021/09/22 11:57:53;;;;;;;25.53;23.13;;;21.30;99.90;;;;;;4388578;32;20235;-64
2021/09/22 12:03:09;;;;;;;27.83;24.87;;;21.80;99.90;;;;;;4362221;32;20198;-64
2021/09/22 12:05:36;;;;;;;26.67;24.47;;;21.80;99.90;;;;;;4362995;32;20207;-64
2021/09/22 12:08:04;;;;;;;23.87;21.93;;;21.70;99.90;;;;;;4363259;32;20144;-64
2021/09/22 12:10:56;;;;;;;26.50;24.17;;;21.70;99.90;;;;;;4360508;33;20174;-64
2021/09/22 12:13:29;;;;;;;21.10;19.30;;;21.70;99.90;;;;;;4361971;33;20160;-65
2021/09/22 12:15:59;;;;;;;22.57;20.47;;;21.60;99.90;;;;;;4361053;32;20230;-64
2021/09/22 12:18:26;;;;;;;22.80;21.00;;;21.40;99.60;;;;;;4358046;33;20152;-64
2021/09/22 12:20:56;;;;;;;24.70;22.80;;;21.30;99.70;;;;;;4360564;32;20178;-64
2021/09/22 12:23:28;;;;;;;24.23;22.43;;;21.10;99.90;;;;;;4361058;32;20160;-64
2021/09/22 12:26:12;;;;;;;23.10;21.20;;;21.10;99.90;;;;;;4357899;32;20153;-65
2021/09/22 12:28:41;;;;;;;24.63;22.67;;;21.20;99.90;;;;;;4362497;32;20191;-64
2021/09/22 12:31:23;;;;;;;23.73;22.07;;;21.20;99.80;;;;;;4376236;32;20149;-65
2021/09/22 12:33:50;;;;;;;25.80;23.57;;;21.20;99.90;;;;;;4369192;32;20149;-64
2021/09/22 12:36:19;;;;;;;24.63;22.37;;;21.20;99.90;;;;;;4363050;32;20240;-64
2021/09/22 12:38:50;;;;;;;23.93;21.97;;;21.30;99.90;;;;;;4362007;32;20222;-64
2021/09/22 12:41:19;;;;;;;22.73;20.77;;;21.30;99.30;;;;;;4360906;33;20220;-64
2021/09/22 12:43:49;;;;;;;23.80;22.20;;;21.10;99.70;;;;;;4358612;32;20148;-66
2021/09/22 12:46:19;;;;;;;24.90;23.00;;;21.20;99.90;;;;;;4358641;33;20561;-64
2021/09/22 12:48:47;;;;;;;21.97;20.37;;;21.20;99.90;;;;;;4355575;33;20149;-64
2021/09/22 12:51:20;;;;;;;23.03;20.77;;;21.20;99.90;;;;;;4359932;32;20156;-66
2021/09/22 12:53:50;;;;;;;24.33;22.53;;;21.00;99.50;;;;;;4352648;32;20619;-67
2021/09/22 12:56:18;;;;;;;21.97;20.30;;;21.00;99.50;;;;;;4343756;33;20152;-67
2021/09/22 12:58:49;;;;;;;24.50;22.67;;;20.90;99.60;;;;;;4346494;33;20211;-65
2021/09/22 13:01:17;;;;;;;26.40;24.60;;;20.80;99.90;;;;;;4338574;33;20522;-66
2021/09/22 13:03:47;;;;;;;23.67;21.90;;;20.80;99.90;;;;;;4346731;32;20505;-64